Time;durP1;ratioP1;P1;durP2;ratioP2;P2;SDS_P1;SDS_P2;PMS_P1;PMS_P2;Temp;Humidity;BMP_temperature;BMP_pressure;BME280_temperature;BME280_humidity;BME280_pressure;Samples;Min_cycle;Max_cycle;Signal;HPM_P1;HPM_P2
2022/05/14 08:10:16;;;;;;;18.40;10.10;;;;;;;14.81;69.52;102029.56;5189826;27;4323606;-75
2022/05/14 08:12:51;;;;;;;17.25;10.40;;;;;;;14.99;69.52;102026.91;5343585;28;20088;-73
2022/05/14 08:15:26;;;;;;;18.10;8.85;;;;;;;15.18;67.86;102020.59;5337048;28;20039;-74
2022/05/14 08:17:57;;;;;;;17.55;9.93;;;;;;;15.19;67.42;102014.72;5300521;28;20445;-74
2022/05/14 08:20:31;;;;;;;20.27;9.32;;;;;;;15.42;67.26;102023.47;5300941;28;20029;-73
2022/05/14 08:26:00;;;;;;;19.35;10.93;;;;;;;15.49;67.42;102023.13;5316022;28;20043;-71
2022/05/14 08:28:31;;;;;;;18.45;10.63;;;;;;;15.61;67.94;102016.00;5318845;28;20360;-72
2022/05/14 08:31:03;;;;;;;22.13;10.95;;;;;;;15.71;66.90;102020.69;5320763;28;20039;-72
2022/05/14 08:33:34;;;;;;;18.98;9.80;;;;;;;15.88;65.96;102019.41;5320828;28;20024;-75
2022/05/14 08:36:05;;;;;;;21.17;10.25;;;;;;;16.06;65.59;102027.03;5321090;28;20114;-71
2022/05/14 08:38:37;;;;;;;20.58;9.48;;;;;;;16.13;65.02;102023.84;5321193;28;20387;-71
2022/05/14 08:41:08;;;;;;;15.32;9.40;;;;;;;16.16;65.40;102028.88;5319544;28;20020;-69
2022/05/14 08:43:47;;;;;;;18.88;10.40;;;;;;;16.29;64.83;102034.56;5315808;28;20390;-72
2022/05/14 08:46:23;;;;;;;21.02;10.15;;;;;;;16.39;63.91;102024.38;5321176;28;20023;-73
2022/05/14 08:49:03;;;;;;;17.35;9.73;;;;;;;16.52;63.99;102023.63;5320977;28;20028;-72
2022/05/14 08:51:41;;;;;;;15.48;8.25;;;;;;;16.61;63.08;102024.59;5320871;28;20039;-72
2022/05/14 08:54:13;;;;;;;20.00;9.52;;;;;;;16.65;62.60;102019.25;5319464;28;20023;-71
2022/05/14 08:56:53;;;;;;;24.80;9.63;;;;;;;16.83;62.49;102018.44;5321110;28;20058;-71
2022/05/14 08:59:40;;;;;;;14.45;8.57;;;;;;;16.80;62.00;102013.44;5315552;28;20356;-73
2022/05/14 09:02:15;;;;;;;14.40;7.68;;;;;;;16.85;61.50;102013.38;5321953;28;20036;-72
2022/05/14 09:04:49;;;;;;;13.48;7.70;;;;;;;16.90;61.33;102016.09;5319888;28;20027;-72
2022/05/14 09:07:21;;;;;;;19.58;9.07;;;;;;;16.94;60.54;102013.50;5320969;28;20035;-70
2022/05/14 09:09:55;;;;;;;13.27;8.45;;;;;;;16.93;60.32;102018.28;5307676;28;20044;-75
2022/05/14 09:12:33;;;;;;;16.67;7.80;;;;;;;17.05;60.52;102022.56;5306405;28;20028;-73
2022/05/14 09:15:14;;;;;;;16.23;7.90;;;;;;;17.08;60.39;102021.97;5303502;28;20024;-72
2022/05/14 09:17:45;;;;;;;13.65;7.45;;;;;;;17.12;59.60;102011.81;5300745;28;20032;-72
2022/05/14 09:20:25;;;;;;;16.13;7.97;;;;;;;17.16;59.82;102015.66;5304834;28;20032;-70
2022/05/14 09:22:56;;;;;;;16.88;8.70;;;;;;;17.14;60.33;102015.97;5305146;28;20055;-73
2022/05/14 09:25:36;;;;;;;18.70;9.18;;;;;;;17.38;59.92;102023.41;5305630;28;20063;-76
2022/05/14 09:28:22;;;;;;;15.40;7.68;;;;;;;17.43;58.49;102022.50;5304898;28;20028;-74
2022/05/14 09:30:57;;;;;;;17.25;9.15;;;;;;;17.56;58.32;102013.25;5300830;28;20089;-77
2022/05/14 09:33:40;;;;;;;24.67;9.63;;;;;;;17.68;57.89;102008.00;5298411;28;20077;-72
2022/05/14 09:36:18;;;;;;;21.30;11.73;;;;;;;17.59;57.36;102013.50;5306249;28;20024;-75
2022/05/14 09:39:04;;;;;;;19.20;7.50;;;;;;;17.73;57.33;102013.50;5306066;28;20601;-74
2022/05/14 09:42:04;;;;;;;33.15;27.83;;;;;;;17.90;57.62;102006.50;5306241;28;20024;-74
2022/05/14 09:44:49;;;;;;;18.40;9.07;;;;;;;17.99;56.31;102007.41;5281629;28;20089;-76
2022/05/14 09:47:31;;;;;;;13.30;6.50;;;;;;;18.16;55.24;101998.38;5305906;28;20521;-74
2022/05/14 09:50:06;;;;;;;12.70;6.60;;;;;;;17.96;54.92;102002.44;5304680;28;20035;-71
2022/05/14 09:52:37;;;;;;;12.82;6.53;;;;;;;18.18;54.47;102007.31;5306193;28;20462;-73
2022/05/14 09:55:09;;;;;;;13.15;6.55;;;;;;;18.07;54.21;102006.69;5303762;28;20107;-73
2022/05/14 09:57:47;;;;;;;12.23;6.88;;;;;;;18.04;53.99;102010.13;5304689;28;20024;-71
2022/05/14 10:00:29;;;;;;;13.93;6.90;;;;;;;18.12;53.32;101989.72;5305177;28;20031;-74
2022/05/14 10:03:20;;;;;;;17.65;6.40;;;;;;;18.27;52.29;102001.78;5305515;28;20035;-71
2022/05/14 10:06:46;;;;;;;14.23;7.00;;;;;;;18.30;52.36;101999.16;5302080;28;20386;-72
2022/05/14 10:09:20;;;;;;;12.15;6.25;;;;;;;18.28;53.08;102003.44;5273300;28;20051;-72
2022/05/14 10:12:06;;;;;;;12.45;5.78;;;;;;;18.42;51.75;102007.06;5305752;28;20547;-73
2022/05/14 10:14:55;;;;;;;18.88;10.02;;;;;;;18.41;51.40;102008.22;5304654;28;20042;-71
2022/05/14 10:17:40;;;;;;;10.88;7.32;;;;;;;18.42;52.83;102012.69;5305228;28;20024;-72
2022/05/14 10:20:30;;;;;;;14.98;7.95;;;;;;;18.30;53.12;102004.78;5304068;28;20072;-72
2022/05/14 10:26:46;;;;;;;11.45;7.28;;;;;;;18.50;52.37;102003.50;5302536;28;20119;-72
2022/05/14 10:29:26;;;;;;;18.60;10.68;;;;;;;18.66;53.02;101999.22;5295185;28;20032;-70
2022/05/14 10:32:02;;;;;;;15.80;8.00;;;;;;;19.02;52.03;102003.16;5304634;28;20039;-71
2022/05/14 10:34:57;;;;;;;18.02;7.47;;;;;;;18.95;51.90;101998.00;5305322;28;20035;-70
2022/05/14 10:37:46;;;;;;;15.43;7.68;;;;;;;18.76;51.73;101994.53;5304142;28;20524;-71
2022/05/14 10:40:20;;;;;;;15.65;8.05;;;;;;;18.73;51.46;101995.94;5304492;28;20034;-70
2022/05/14 10:43:15;;;;;;;14.73;6.88;;;;;;;18.95;50.23;102003.63;5302547;28;20026;-70
2022/05/14 10:45:49;;;;;;;17.25;7.18;;;;;;;18.81;49.68;102008.44;5304603;28;20024;-70
2022/05/14 10:48:27;;;;;;;12.43;7.20;;;;;;;18.86;49.48;102011.13;5304516;28;20536;-72
2022/05/14 10:51:00;;;;;;;15.93;6.45;;;;;;;18.96;50.00;101998.81;5303736;28;20425;-70
2022/05/14 10:53:33;;;;;;;14.43;6.53;;;;;;;19.25;49.76;102006.78;5304778;28;20478;-71
2022/05/14 10:56:14;;;;;;;11.68;6.47;;;;;;;19.34;49.51;101999.25;5304237;28;20039;-73
2022/05/14 10:58:51;;;;;;;14.35;6.53;;;;;;;19.39;48.58;102007.56;5302447;28;20028;-73
2022/05/14 11:01:27;;;;;;;11.43;5.65;;;;;;;19.50;47.76;102008.94;5304111;28;20074;-72
2022/05/14 11:04:21;;;;;;;8.13;5.30;;;;;;;19.32;47.47;102001.53;5303285;28;20028;-71
2022/05/14 11:07:01;;;;;;;11.32;5.43;;;;;;;19.36;45.94;102007.38;5303878;28;20040;-70
2022/05/14 11:09:41;;;;;;;13.27;5.88;;;;;;;19.54;44.18;102003.50;5303830;28;20036;-70
2022/05/14 11:12:18;;;;;;;14.13;5.00;;;;;;;19.77;45.17;102009.94;5303426;28;20038;-69
2022/05/14 11:14:52;;;;;;;11.93;6.13;;;;;;;19.60;44.67;102012.63;5300072;28;20032;-68
2022/05/14 11:17:34;;;;;;;20.23;15.38;;;;;;;19.70;45.33;102007.56;5302941;28;20043;-68
2022/05/14 11:20:07;;;;;;;13.32;6.78;;;;;;;19.73;44.94;102000.47;5303597;28;20046;-69
2022/05/14 11:22:44;;;;;;;8.00;4.55;;;;;;;19.85;43.34;101997.88;5303035;28;20040;-66
2022/05/14 11:25:24;;;;;;;10.32;6.60;;;;;;;19.82;46.06;102008.97;5302367;28;20028;-71
2022/05/14 11:28:13;;;;;;;34.40;27.45;;;;;;;19.88;45.67;102005.66;5284998;28;20032;-68
2022/05/14 11:30:44;;;;;;;15.20;7.43;;;;;;;20.04;45.30;102006.06;5303215;28;20043;-68
2022/05/14 11:33:28;;;;;;;14.60;9.60;;;;;;;20.03;45.13;101990.31;5296708;28;20107;-69
2022/05/14 11:36:01;;;;;;;14.18;6.82;;;;;;;19.95;45.94;101996.78;5304261;28;20282;-68
2022/05/14 11:38:36;;;;;;;14.38;7.28;;;;;;;20.25;46.04;101999.81;5303609;28;20432;-67
2022/05/14 11:41:11;;;;;;;24.77;17.13;;;;;;;20.23;45.89;102002.97;5303078;28;20118;-69
2022/05/14 11:43:46;;;;;;;20.17;11.52;;;;;;;20.28;45.30;101991.56;5302392;28;20029;-71
2022/05/14 11:46:35;;;;;;;15.27;9.15;;;;;;;20.14;46.05;101997.31;5302249;28;20116;-69
2022/05/14 11:49:36;;;;;;;17.58;7.95;;;;;;;20.33;45.97;102005.50;5298148;28;20021;-67
2022/05/14 11:52:20;;;;;;;14.32;8.63;;;;;;;20.54;45.35;102002.03;5285152;28;20022;-68
2022/05/14 11:55:02;;;;;;;14.50;8.02;;;;;;;20.45;45.06;101999.19;5302906;28;20028;-68
2022/05/14 11:57:44;;;;;;;13.82;7.75;;;;;;;20.70;44.79;102003.22;5302768;28;20035;-68
2022/05/14 12:00:28;;;;;;;13.50;7.40;;;;;;;20.67;44.32;102001.09;5302525;28;20024;-69
2022/05/14 12:03:12;;;;;;;14.00;7.30;;;;;;;20.88;43.96;102004.06;5303743;28;20066;-68
2022/05/14 12:05:47;;;;;;;12.50;8.02;;;;;;;20.93;42.98;102003.06;5300576;28;20148;-69
2022/05/14 12:08:52;;;;;;;12.97;9.33;;;;;;;21.04;41.77;101998.78;5299637;28;20036;-69
2022/05/14 12:11:53;;;;;;;10.68;7.47;;;;;;;21.03;41.80;102000.75;5282626;28;20113;-68
2022/05/14 12:14:30;;;;;;;15.10;7.32;;;;;;;21.13;41.27;101996.75;5281754;28;20020;-69
2022/05/14 12:17:06;;;;;;;14.07;7.80;;;;;;;21.11;41.34;101992.59;5281877;28;20086;-69
2022/05/14 12:19:39;;;;;;;13.38;7.25;;;;;;;21.22;41.27;101982.66;5281078;28;20105;-69
2022/05/14 12:22:23;;;;;;;14.43;6.88;;;;;;;21.37;41.24;101984.94;5281975;28;20036;-69
2022/05/14 12:24:59;;;;;;;12.55;6.32;;;;;;;21.47;41.45;101981.78;5282204;28;20021;-68
2022/05/14 12:27:33;;;;;;;10.00;6.60;;;;;;;21.62;41.64;101985.22;5281811;28;20085;-68
2022/05/14 12:30:13;;;;;;;12.70;6.93;;;;;;;21.68;41.31;101984.69;5281545;28;20029;-69
2022/05/14 12:35:42;;;;;;;14.75;7.35;;;;;;;21.90;40.91;101982.75;5278564;28;20143;-74
2022/05/14 12:38:13;;;;;;;12.32;7.53;;;;;;;21.76;39.91;101971.72;5282584;28;20025;-81
2022/05/14 12:40:46;;;;;;;11.95;6.80;;;;;;;22.05;41.10;101970.88;5277652;28;20023;-81
2022/05/14 12:43:17;;;;;;;14.25;6.40;;;;;;;21.87;39.00;101969.34;5283724;28;20361;-77
2022/05/14 12:45:59;;;;;;;10.43;6.90;;;;;;;21.78;39.30;101975.03;5284670;28;20033;-76
2022/05/14 12:48:50;;;;;;;11.77;6.80;;;;;;;22.14;38.91;101968.84;5284955;28;20089;-80
2022/05/14 12:51:25;;;;;;;15.27;7.95;;;;;;;21.78;39.92;101975.03;5285685;28;20063;-75
2022/05/14 12:53:56;;;;;;;12.05;7.55;;;;;;;21.85;38.21;101966.84;5286060;28;20020;-76
2022/05/14 12:56:30;;;;;;;28.98;25.58;;;;;;;22.29;38.35;101970.28;5283435;28;20080;-82
2022/05/14 12:59:02;;;;;;;12.40;6.50;;;;;;;22.26;38.66;101970.13;5281815;28;20027;-73
2022/05/14 13:01:33;;;;;;;12.18;7.10;;;;;;;22.37;38.17;101971.41;5285712;28;20478;-74
2022/05/14 13:04:09;;;;;;;10.45;6.53;;;;;;;22.38;37.74;101963.75;5284932;28;20200;-73
2022/05/14 13:06:45;;;;;;;14.90;7.10;;;;;;;22.52;37.73;101956.66;5285423;28;20150;-75
2022/05/14 13:09:23;;;;;;;14.63;6.65;;;;;;;22.60;38.85;101959.72;5291721;28;20103;-72
2022/05/14 13:11:57;;;;;;;10.73;5.65;;;;;;;22.66;38.49;101955.53;5305936;28;20036;-74
2022/05/14 13:14:33;;;;;;;15.77;6.28;;;;;;;22.86;38.73;101960.34;5301509;28;20377;-72
2022/05/14 13:17:06;;;;;;;;;;;;;;;23.02;38.16;101963.38;5305918;28;20038;-72
2022/05/14 13:19:47;;;;;;;11.82;7.15;;;;;;;22.78;38.81;101956.44;5306043;28;19912;-73
2022/05/14 13:22:40;;;;;;;18.98;14.18;;;;;;;22.83;38.17;101951.72;5305223;28;20028;-74
2022/05/14 13:25:31;;;;;;;8.45;6.05;;;;;;;23.12;38.59;101950.81;5306914;28;20398;-78
2022/05/14 13:28:16;;;;;;;13.75;6.82;;;;;;;23.19;38.57;101945.41;5292865;28;20109;-78
2022/05/14 13:30:47;;;;;;;17.27;6.93;;;;;;;23.21;38.30;101943.91;5297139;28;20025;-78
2022/05/14 13:33:30;;;;;;;13.55;7.30;;;;;;;23.20;38.52;101947.06;5302647;28;20548;-78
2022/05/14 13:39:03;;;;;;;15.57;6.40;;;;;;;23.32;38.32;101944.25;5293610;28;20039;-75
2022/05/14 13:41:42;;;;;;;13.07;7.28;;;;;;;23.14;37.72;101939.97;5305377;28;20028;-77
2022/05/14 13:44:23;;;;;;;15.50;6.00;;;;;;;23.46;38.00;101932.59;5303603;28;20032;-79
2022/05/14 13:46:58;;;;;;;13.90;6.78;;;;;;;23.35;36.10;101939.91;5305309;28;20028;-77
2022/05/14 13:49:32;;;;;;;14.48;6.15;;;;;;;23.47;35.99;101925.78;5301123;28;20031;-76
2022/05/14 13:52:04;;;;;;;12.70;7.10;;;;;;;23.39;35.75;101932.34;5305886;28;20028;-74
2022/05/14 13:54:38;;;;;;;14.95;5.82;;;;;;;23.56;37.08;101939.81;5304949;28;20091;-74
2022/05/14 13:57:19;;;;;;;15.05;6.93;;;;;;;23.73;37.55;101933.97;5305050;28;20024;-74
2022/05/14 14:00:08;;;;;;;18.83;12.07;;;;;;;23.99;35.64;101939.25;5303518;28;20028;-76
2022/05/14 14:02:43;;;;;;;14.95;9.60;;;;;;;23.94;35.34;101933.03;5305291;28;20460;-75
2022/05/14 14:05:17;;;;;;;9.55;4.68;;;;;;;23.98;34.40;101928.28;5300347;28;20441;-75
2022/05/14 14:07:49;;;;;;;7.55;4.93;;;;;;;23.67;33.92;101918.34;5305100;28;20020;-78
2022/05/14 14:10:33;;;;;;;8.88;4.28;;;;;;;23.82;34.70;101928.16;5305021;28;20127;-76
2022/05/14 14:13:07;;;;;;;11.77;5.03;;;;;;;24.05;35.54;101920.00;5305254;28;20085;-78
2022/05/14 14:15:41;;;;;;;12.30;5.38;;;;;;;24.13;35.14;101921.88;5304503;28;20024;-79
2022/05/14 14:18:13;;;;;;;9.73;4.63;;;;;;;24.12;34.88;101914.56;5305095;28;20051;-83
2022/05/14 14:20:49;;;;;;;8.30;4.43;;;;;;;23.94;34.90;101919.66;5301326;28;20063;-78
2022/05/14 14:23:25;;;;;;;11.00;5.13;;;;;;;23.90;35.43;101913.06;5295799;28;20016;-77
2022/05/14 14:25:56;;;;;;;13.52;5.25;;;;;;;23.62;35.70;101910.06;5305634;28;20024;-76
2022/05/14 14:28:29;;;;;;;13.40;5.22;;;;;;;23.61;35.85;101906.44;5304182;28;20115;-81
2022/05/14 14:31:03;;;;;;;11.13;5.00;;;;;;;23.78;36.53;101904.59;5304855;28;20047;-76
2022/05/14 14:33:35;;;;;;;11.45;4.95;;;;;;;23.89;36.25;101904.94;5303550;28;20032;-78
2022/05/14 14:36:06;;;;;;;11.07;4.57;;;;;;;23.92;37.13;101904.22;5304490;28;20395;-78
2022/05/14 14:38:38;;;;;;;12.95;5.15;;;;;;;23.86;36.59;101904.44;5303345;28;20040;-77
2022/05/14 14:41:10;;;;;;;10.10;4.45;;;;;;;24.02;36.48;101900.91;5301521;28;20031;-76
2022/05/14 14:43:41;;;;;;;13.30;5.50;;;;;;;24.33;36.05;101903.06;5305441;28;20036;-77
2022/05/14 14:46:13;;;;;;;10.70;4.88;;;;;;;24.33;35.82;101899.41;5304795;28;20020;-77
2022/05/14 14:48:48;;;;;;;15.25;4.82;;;;;;;24.39;34.77;101900.78;5304711;28;20048;-77
2022/05/14 14:51:23;;;;;;;11.32;4.38;;;;;;;24.18;34.51;101895.31;5304487;28;20028;-77
2022/05/14 14:53:55;;;;;;;8.50;3.75;;;;;;;24.26;34.32;101886.69;5304610;28;20031;-77
2022/05/14 14:56:27;;;;;;;11.35;4.50;;;;;;;24.08;34.59;101880.47;5298382;28;20024;-77
2022/05/14 14:58:58;;;;;;;12.10;5.47;;;;;;;24.14;34.84;101895.22;5304418;28;20032;-77
2022/05/14 15:01:42;;;;;;;12.57;5.38;;;;;;;23.91;35.42;101885.56;5304379;28;20036;-74
2022/05/14 15:04:25;;;;;;;10.30;5.18;;;;;;;23.94;35.41;101887.69;5304104;28;20028;-74
2022/05/14 15:06:57;;;;;;;13.45;5.53;;;;;;;24.21;35.28;101878.44;5304437;28;20031;-75
2022/05/14 15:09:28;;;;;;;12.82;5.25;;;;;;;23.95;34.54;101880.81;5301314;28;20059;-75
2022/05/14 15:11:59;;;;;;;7.68;4.03;;;;;;;23.90;34.48;101878.25;5303579;28;20119;-75
2022/05/14 15:14:32;;;;;;;11.85;4.43;;;;;;;23.65;35.63;101872.59;5299426;28;20020;-75
2022/05/14 15:17:03;;;;;;;10.25;5.97;;;;;;;23.82;36.08;101871.53;5303726;28;20024;-75
2022/05/14 15:19:37;;;;;;;11.00;4.63;;;;;;;23.77;36.85;101875.41;5303651;28;20502;-75
2022/05/14 15:22:09;;;;;;;13.95;5.38;;;;;;;23.63;35.65;101874.94;5303950;28;20127;-76
2022/05/14 15:24:40;;;;;;;10.55;5.30;;;;;;;23.66;36.26;101874.22;5302797;28;20523;-74
2022/05/14 15:27:14;;;;;;;11.52;5.57;;;;;;;23.51;36.72;101874.94;5298524;28;20407;-76
2022/05/14 15:29:46;;;;;;;11.13;4.88;;;;;;;23.61;37.07;101865.97;5283295;28;20156;-75
2022/05/14 15:32:20;;;;;;;8.85;5.00;;;;;;;23.55;36.94;101865.38;5302075;28;20040;-74
2022/05/14 15:34:52;;;;;;;10.88;4.55;;;;;;;23.69;36.65;101870.69;5304020;28;20166;-74
2022/05/14 15:37:23;;;;;;;13.02;5.35;;;;;;;23.75;36.74;101869.31;5303430;28;20057;-74
2022/05/14 15:39:55;;;;;;;11.80;5.60;;;;;;;23.37;37.03;101867.63;5303094;28;20055;-79
2022/05/14 15:42:51;;;;;;;10.60;4.78;;;;;;;23.47;37.32;101866.34;5302759;28;20020;-75
2022/05/14 15:45:26;;;;;;;;;;;;;;;23.61;38.01;101868.81;5303338;28;20016;-75
2022/05/14 15:48:02;;;;;;;13.85;5.13;;;;;;;23.44;38.98;101862.19;5301066;28;19943;-83
2022/05/14 15:50:35;;;;;;;9.02;4.75;;;;;;;23.31;38.54;101863.34;5306661;28;20028;-80
2022/05/14 15:53:13;;;;;;;15.15;4.97;;;;;;;23.32;37.44;101862.19;5306518;28;20024;-80
2022/05/14 15:55:48;;;;;;;10.13;4.63;;;;;;;23.38;37.29;101859.94;5305996;28;20027;-77
2022/05/14 15:58:19;;;;;;;11.15;5.72;;;;;;;23.48;37.29;101861.50;5306333;28;20028;-83
2022/05/14 16:00:51;;;;;;;13.63;5.18;;;;;;;23.48;37.50;101855.84;5305682;28;20024;-76
2022/05/14 16:03:23;;;;;;;11.77;5.40;;;;;;;23.53;37.19;101867.75;5303610;28;20083;-74
2022/05/14 16:05:55;;;;;;;13.60;5.30;;;;;;;23.40;37.38;101855.59;5303361;28;20532;-75
2022/05/14 16:08:30;;;;;;;11.75;5.60;;;;;;;23.35;37.63;101867.13;5303662;28;20063;-75
2022/05/14 16:16:41;;;;;;;14.18;6.10;;;;;;;23.31;37.65;101857.69;5304178;28;20024;-74
2022/05/14 16:19:13;;;;;;;12.88;5.20;;;;;;;23.34;37.81;101853.34;5305173;28;20027;-75
2022/05/14 16:21:44;;;;;;;10.40;5.68;;;;;;;23.61;37.51;101860.31;5302705;28;20035;-72
2022/05/14 16:24:16;;;;;;;15.18;5.20;;;;;;;23.58;37.74;101861.03;5310426;28;20110;-73
2022/05/14 16:26:48;;;;;;;11.07;4.82;;;;;;;23.67;37.15;101856.03;5308440;28;20042;-72
2022/05/14 16:29:19;;;;;;;12.25;5.07;;;;;;;23.60;37.83;101855.84;5308762;28;20024;-75
2022/05/14 16:31:51;;;;;;;13.60;5.00;;;;;;;23.49;37.26;101851.81;5308629;28;20424;-75
2022/05/14 16:34:22;;;;;;;9.73;4.57;;;;;;;23.63;37.06;101860.78;5306849;28;20030;-75
2022/05/14 16:36:53;;;;;;;9.63;4.70;;;;;;;23.51;37.12;101855.13;5305936;28;20016;-76
2022/05/14 16:39:24;;;;;;;17.38;5.60;;;;;;;23.64;37.38;101853.94;5302573;28;20020;-75
2022/05/14 16:41:56;;;;;;;14.50;4.78;;;;;;;23.89;36.69;101854.75;5307270;28;20036;-75
2022/05/14 16:44:27;;;;;;;12.98;4.80;;;;;;;23.89;36.66;101854.75;5308065;28;20047;-75
2022/05/14 16:46:58;;;;;;;9.25;4.82;;;;;;;23.85;36.79;101854.66;5306386;28;20036;-75
2022/05/14 16:49:30;;;;;;;11.40;5.53;;;;;;;23.76;36.78;101856.78;5306130;28;20028;-75
2022/05/14 16:52:01;;;;;;;12.13;5.45;;;;;;;23.79;36.34;101856.06;5306826;28;20040;-75
2022/05/14 16:54:35;;;;;;;11.65;4.57;;;;;;;23.85;36.87;101854.66;5306349;28;20020;-76
2022/05/14 16:57:06;;;;;;;10.10;4.85;;;;;;;23.78;36.20;101854.44;5302618;28;20031;-75
2022/05/14 16:59:38;;;;;;;11.60;5.10;;;;;;;23.93;36.77;101852.03;5307487;28;20038;-75
2022/05/14 17:02:10;;;;;;;10.02;4.35;;;;;;;24.00;36.49;101849.41;5306496;28;20023;-75
2022/05/14 17:04:41;;;;;;;8.65;4.50;;;;;;;24.04;36.55;101851.19;5307348;28;20472;-76
2022/05/14 17:07:15;;;;;;;12.82;4.97;;;;;;;24.04;36.30;101856.84;5307050;28;20031;-76
2022/05/14 17:09:46;;;;;;;11.13;5.18;;;;;;;24.00;35.68;101855.91;5306521;28;20463;-76
2022/05/14 17:12:18;;;;;;;9.75;5.28;;;;;;;23.95;35.63;101858.16;5301801;28;20013;-75
2022/05/14 17:14:49;;;;;;;11.13;4.93;;;;;;;23.82;36.00;101858.19;5307311;28;20031;-75
2022/05/14 17:17:20;;;;;;;14.48;6.00;;;;;;;23.81;36.23;101859.38;5305584;28;20024;-74
2022/05/14 17:19:52;;;;;;;11.90;4.80;;;;;;;23.81;36.08;101859.38;5307135;28;20039;-75
2022/05/14 17:22:23;;;;;;;9.35;5.00;;;;;;;23.74;36.16;101861.97;5306906;28;20022;-75
2022/05/14 17:24:54;;;;;;;8.65;4.90;;;;;;;23.67;36.86;101858.88;5305801;28;20032;-75
2022/05/14 17:27:26;;;;;;;10.88;7.32;;;;;;;23.64;36.40;101860.41;5306106;28;20056;-75
2022/05/14 17:29:58;;;;;;;11.30;4.88;;;;;;;23.67;35.82;101864.53;5301368;28;20093;-75
